Time,TemperatureF,DewpointF,PressureIn,WindDirection,WindDirectionDegrees,WindSpeedMPH,WindSpeedGustMPH,Humidity,HourlyPrecipIn,Conditions,Clouds,dailyrainin,SoftwareType,DateUTC
2013-02-06 00:02:00,44.0,40.0,29.97,WSW,253,15.0,-999.0,87,-99.99,,,-99.99,,2013-02-06 05:02:00,
2013-02-06 00:12:00,44.0,40.0,29.97,WSW,253,15.0,-999.0,87,-99.99,,,-99.99,,2013-02-06 05:12:00,
2013-02-06 00:22:00,46.0,42.0,29.97,West,281,17.0,-999.0,85,-99.99,,,-99.99,,2013-02-06 05:22:00,
2013-02-06 00:32:00,46.0,41.0,29.98,West,271,18.0,-999.0,84,-99.99,,,-99.99,,2013-02-06 05:32:00,
2013-02-06 00:41:00,46.0,41.0,29.98,West,271,18.0,-999.0,84,-99.99,,,-99.99,,2013-02-06 05:41:00,
2013-02-06 00:53:00,46.0,41.0,30.01,NW,319,18.0,-999.0,84,-99.99,,,-99.99,,2013-02-06 05:53:00,
2013-02-06 01:01:00,46.0,41.0,30.01,NW,319,18.0,-999.0,84,-99.99,,,-99.99,,2013-02-06 06:01:00,
2013-02-06 01:11:00,46.0,41.0,30.01,NW,319,18.0,-999.0,84,-99.99,,,-99.99,,2013-02-06 06:11:00,
2013-02-06 01:22:00,44.0,41.0,29.98,NNW,334,17.0,-999.0,88,-99.99,,,-99.99,,2013-02-06 06:22:00,
2013-02-06 01:32:00,43.0,40.0,29.99,NW,323,16.0,-999.0,89,-99.99,,,-99.99,,2013-02-06 06:32:00,
2013-02-06 01:42:00,43.0,40.0,29.99,NW,323,16.0,-999.0,89,-99.99,,,-99.99,,2013-02-06 06:42:00,
2013-02-06 01:52:00,42.0,39.0,29.99,NW,324,13.0,-999.0,90,-99.99,,,-99.99,,2013-02-06 06:52:00,
2013-02-06 02:01:00,42.0,38.0,30.00,NW,316,10.0,-999.0,87,-99.99,,,-99.99,,2013-02-06 07:01:00,
2013-02-06 02:11:00,42.0,38.0,30.00,NW,316,10.0,-999.0,87,-99.99,,,-99.99,,2013-02-06 07:11:00,
2013-02-06 02:22:00,41.0,38.0,30.00,North,355,9.0,-999.0,88,-99.99,,,-99.99,,2013-02-06 07:22:00,
2013-02-06 02:32:00,41.0,37.0,30.00,NNW,342,7.0,-999.0,87,-99.99,,,-99.99,,2013-02-06 07:32:00,
2013-02-06 02:42:00,41.0,37.0,30.00,NNW,342,7.0,-999.0,87,-99.99,,,-99.99,,2013-02-06 07:42:00,
2013-02-06 02:51:00,40.0,36.0,30.01,NNW,344,6.0,-999.0,85,-99.99,,,-99.99,,2013-02-06 07:51:00,
2013-02-06 03:01:00,41.0,36.0,30.01,North,5,8.0,-999.0,81,-99.99,,,-99.99,,2013-02-06 08:01:00,
2013-02-06 03:11:00,41.0,36.0,30.01,North,5,8.0,-999.0,81,-99.99,,,-99.99,,2013-02-06 08:11:00,
2013-02-06 03:21:00,41.0,34.0,30.01,North,5,10.0,-999.0,76,-99.99,,,-99.99,,2013-02-06 08:21:00,
2013-02-06 03:32:00,40.0,34.0,30.02,North,5,9.0,-999.0,79,-99.99,,,-99.99,,2013-02-06 08:32:00,
2013-02-06 03:42:00,40.0,34.0,30.02,North,5,9.0,-999.0,79,-99.99,,,-99.99,,2013-02-06 08:42:00,
2013-02-06 03:53:00,40.0,34.0,30.01,North,5,8.0,-999.0,78,-99.99,,,-99.99,,2013-02-06 08:53:00,
2013-02-06 04:02:00,40.0,34.0,30.01,North,11,8.0,-999.0,80,-99.99,,,-99.99,,2013-02-06 09:02:00,
2013-02-06 04:11:00,40.0,34.0,30.01,North,11,8.0,-999.0,80,-99.99,,,-99.99,,2013-02-06 09:11:00,
2013-02-06 04:21:00,40.0,34.0,30.02,North,11,8.0,-999.0,79,-99.99,,,-99.99,,2013-02-06 09:21:00,
2013-02-06 04:32:00,40.0,35.0,30.02,NNE,17,6.0,-999.0,82,-99.99,,,-99.99,,2013-02-06 09:32:00,
2013-02-06 04:42:00,40.0,35.0,30.02,NNE,17,6.0,-999.0,82,-99.99,,,-99.99,,2013-02-06 09:42:00,
2013-02-06 04:51:00,40.0,34.0,30.03,NNE,22,6.0,-999.0,78,-99.99,,,-99.99,,2013-02-06 09:51:00,
2013-02-06 05:01:00,39.0,33.0,30.03,NNE,22,6.0,-999.0,79,-99.99,,,-99.99,,2013-02-06 10:01:00,
2013-02-06 05:11:00,39.0,33.0,30.03,NNE,22,6.0,-999.0,79,-99.99,,,-99.99,,2013-02-06 10:11:00,
2013-02-06 05:21:00,39.0,32.0,30.03,NNE,22,7.0,-999.0,77,-99.99,,,-99.99,,2013-02-06 10:21:00,
2013-02-06 05:31:00,39.0,32.0,30.03,NNE,28,7.0,-999.0,76,-99.99,,,-99.99,,2013-02-06 10:31:00,
2013-02-06 05:42:00,39.0,32.0,30.03,NNE,28,7.0,-999.0,76,-99.99,,,-99.99,,2013-02-06 10:42:00,
2013-02-06 05:52:00,39.0,33.0,30.03,NNE,30,6.0,-999.0,78,-99.99,,,-99.99,,2013-02-06 10:52:00,
2013-02-06 06:01:00,39.0,33.0,30.03,NNE,30,5.0,-999.0,80,-99.99,,,-99.99,,2013-02-06 11:01:00,
2013-02-06 06:11:00,39.0,33.0,30.03,NNE,30,5.0,-999.0,80,-99.99,,,-99.99,,2013-02-06 11:11:00,
2013-02-06 06:22:00,38.0,33.0,30.04,NNE,31,5.0,-999.0,83,-99.99,,,-99.99,,2013-02-06 11:22:00,
2013-02-06 06:32:00,38.0,33.0,30.05,NNE,31,5.0,-999.0,81,-99.99,,,-99.99,,2013-02-06 11:32:00,
2013-02-06 06:42:00,38.0,33.0,30.05,NNE,31,5.0,-999.0,81,-99.99,,,-99.99,,2013-02-06 11:42:00,
2013-02-06 06:52:00,38.0,32.0,30.06,NNE,31,5.0,-999.0,80,-99.99,,,-99.99,,2013-02-06 11:52:00,
2013-02-06 07:02:00,38.0,32.0,30.06,NNE,31,3.0,-999.0,79,-99.99,,,-99.99,,2013-02-06 12:02:00,
2013-02-06 07:12:00,38.0,32.0,30.06,NNE,31,3.0,-999.0,79,-99.99,,,-99.99,,2013-02-06 12:12:00,
2013-02-06 07:22:00,39.0,33.0,30.07,NNE,31,3.0,-999.0,78,-99.99,,,-99.99,,2013-02-06 12:22:00,
2013-02-06 07:32:00,39.0,33.0,30.07,NE,49,3.0,-999.0,79,-99.99,,,-99.99,,2013-02-06 12:32:00,
2013-02-06 07:42:00,39.0,33.0,30.07,NE,49,3.0,-999.0,79,-99.99,,,-99.99,,2013-02-06 12:42:00,
2013-02-06 07:52:00,39.0,33.0,30.08,ENE,57,5.0,-999.0,79,-99.99,,,-99.99,,2013-02-06 12:52:00,
2013-02-06 08:01:00,39.0,33.0,30.08,ENE,59,3.0,-999.0,78,-99.99,,,-99.99,,2013-02-06 13:01:00,
2013-02-06 08:12:00,39.0,33.0,30.08,ENE,59,3.0,-999.0,78,-99.99,,,-99.99,,2013-02-06 13:12:00,
2013-02-06 08:22:00,40.0,33.0,30.09,ENE,59,2.0,-999.0,77,-99.99,,,-99.99,,2013-02-06 13:22:00,
2013-02-06 08:32:00,41.0,34.0,30.12,ENE,59,1.0,-999.0,75,-99.99,,,-99.99,,2013-02-06 13:32:00,
2013-02-06 08:52:00,41.0,33.0,30.12,ENE,59,3.0,-999.0,74,-99.99,,,-99.99,,2013-02-06 13:52:00,
2013-02-06 09:02:00,41.0,33.0,30.12,ENE,59,3.0,-999.0,73,-99.99,,,-99.99,,2013-02-06 14:02:00,
2013-02-06 09:11:00,42.0,33.0,30.12,ENE,59,1.0,-999.0,71,-99.99,,,-99.99,,2013-02-06 14:11:00,
2013-02-06 09:22:00,42.0,33.0,30.12,ENE,59,1.0,-999.0,71,-99.99,,,-99.99,,2013-02-06 14:22:00,
2013-02-06 09:32:00,42.0,33.0,30.13,ENE,59,3.0,-999.0,69,-99.99,,,-99.99,,2013-02-06 14:32:00,
2013-02-06 09:42:00,43.0,34.0,30.13,ENE,59,2.0,-999.0,69,-99.99,,,-99.99,,2013-02-06 14:42:00,
2013-02-06 09:52:00,43.0,34.0,30.13,ENE,59,2.0,-999.0,69,-99.99,,,-99.99,,2013-02-06 14:52:00,
2013-02-06 10:02:00,43.0,34.0,30.13,ENE,59,4.0,-999.0,69,-99.99,,,-99.99,,2013-02-06 15:02:00,
2013-02-06 10:11:00,43.0,32.0,30.14,ENE,59,4.0,-999.0,66,-99.99,,,-99.99,,2013-02-06 15:11:00,
2013-02-06 10:21:00,43.0,32.0,30.14,ENE,59,4.0,-999.0,66,-99.99,,,-99.99,,2013-02-06 15:21:00,
2013-02-06 10:31:00,43.0,32.0,30.14,ENE,71,4.0,-999.0,66,-99.99,,,-99.99,,2013-02-06 15:31:00,
2013-02-06 10:42:00,44.0,33.0,30.14,ENE,71,3.0,-999.0,64,-99.99,,,-99.99,,2013-02-06 15:42:00,
2013-02-06 10:52:00,44.0,33.0,30.14,ENE,71,3.0,-999.0,64,-99.99,,,-99.99,,2013-02-06 15:52:00,
2013-02-06 11:01:00,45.0,33.0,30.14,ENE,71,1.0,-999.0,62,-99.99,,,-99.99,,2013-02-06 16:01:00,
2013-02-06 11:11:00,45.0,33.0,30.14,ENE,71,1.0,-999.0,62,-99.99,,,-99.99,,2013-02-06 16:11:00,
2013-02-06 11:21:00,45.0,33.0,30.15,ENE,71,3.0,-999.0,62,-99.99,,,-99.99,,2013-02-06 16:21:00,
2013-02-06 11:32:00,45.0,32.0,30.15,ENE,71,2.0,-999.0,61,-99.99,,,-99.99,,2013-02-06 16:32:00,
2013-02-06 11:42:00,45.0,32.0,30.15,ENE,71,2.0,-999.0,61,-99.99,,,-99.99,,2013-02-06 16:42:00,
2013-02-06 11:52:00,46.0,32.0,30.15,ENE,71,1.0,-999.0,59,-99.99,,,-99.99,,2013-02-06 16:52:00,
2013-02-06 12:02:00,45.0,31.0,30.15,ENE,71,3.0,-999.0,58,-99.99,,,-99.99,,2013-02-06 17:02:00,
2013-02-06 12:11:00,45.0,32.0,30.16,ENE,71,3.0,-999.0,59,-99.99,,,-99.99,,2013-02-06 17:11:00,
2013-02-06 12:22:00,45.0,32.0,30.16,ENE,71,3.0,-999.0,59,-99.99,,,-99.99,,2013-02-06 17:22:00,
2013-02-06 12:32:00,46.0,35.0,30.15,ENE,71,1.0,-999.0,66,-99.99,,,-99.99,,2013-02-06 17:32:00,
2013-02-06 12:42:00,46.0,32.0,30.15,NNW,342,5.0,-999.0,57,-99.99,,,-99.99,,2013-02-06 17:42:00,
2013-02-06 12:52:00,46.0,32.0,30.15,NNW,342,5.0,-999.0,57,-99.99,,,-99.99,,2013-02-06 17:52:00,
2013-02-06 13:01:00,46.0,30.0,30.16,NNW,339,6.0,-999.0,54,-99.99,,,-99.99,,2013-02-06 18:01:00,
2013-02-06 13:11:00,46.0,31.0,30.15,NNW,338,3.0,-999.0,55,-99.99,,,-99.99,,2013-02-06 18:11:00,
2013-02-06 13:23:00,46.0,31.0,30.15,NNW,338,3.0,-999.0,55,-99.99,,,-99.99,,2013-02-06 18:23:00,
2013-02-06 13:32:00,45.0,31.0,30.14,NNW,329,7.0,-999.0,57,-99.99,,,-99.99,,2013-02-06 18:32:00,
2013-02-06 13:52:00,46.0,32.0,30.14,NNW,330,5.0,-999.0,58,-99.99,,,-99.99,,2013-02-06 18:52:00,
2013-02-06 14:02:00,46.0,31.0,30.14,NNW,340,5.0,-999.0,56,-99.99,,,-99.99,,2013-02-06 19:02:00,
2013-02-06 14:21:00,47.0,33.0,30.13,NNW,340,3.0,-999.0,57,-99.99,,,-99.99,,2013-02-06 19:21:00,
2013-02-06 14:32:00,48.0,32.0,30.13,NNW,339,4.0,-999.0,54,-99.99,,,-99.99,,2013-02-06 19:32:00,
2013-02-06 14:52:00,47.0,32.0,30.13,NNW,334,4.0,-999.0,56,-99.99,,,-99.99,,2013-02-06 19:52:00,
2013-02-06 15:01:00,47.0,32.0,30.12,NNW,334,4.0,-999.0,56,-99.99,,,-99.99,,2013-02-06 20:01:00,
2013-02-06 15:11:00,48.0,32.0,30.12,NNW,334,4.0,-999.0,54,-99.99,,,-99.99,,2013-02-06 20:11:00,
2013-02-06 15:21:00,48.0,32.0,30.12,NNW,334,4.0,-999.0,54,-99.99,,,-99.99,,2013-02-06 20:21:00,
2013-02-06 15:32:00,48.0,33.0,30.12,NNW,334,3.0,-999.0,55,-99.99,,,-99.99,,2013-02-06 20:32:00,
2013-02-06 15:52:00,48.0,32.0,30.12,NNW,334,3.0,-999.0,54,-99.99,,,-99.99,,2013-02-06 20:52:00,
2013-02-06 16:02:00,48.0,33.0,30.12,NNW,334,4.0,-999.0,55,-99.99,,,-99.99,,2013-02-06 21:02:00,
2013-02-06 16:21:00,48.0,32.0,30.12,NNW,334,5.0,-999.0,54,-99.99,,,-99.99,,2013-02-06 21:21:00,
2013-02-06 16:32:00,48.0,32.0,30.12,NNW,334,4.0,-999.0,53,-99.99,,,-99.99,,2013-02-06 21:32:00,
2013-02-06 16:52:00,48.0,32.0,30.13,NNW,334,3.0,-999.0,53,-99.99,,,-99.99,,2013-02-06 21:52:00,
2013-02-06 17:01:00,48.0,32.0,30.13,NNW,334,5.0,-999.0,53,-99.99,,,-99.99,,2013-02-06 22:01:00,
2013-02-06 17:21:00,48.0,32.0,30.12,NNW,334,5.0,-999.0,54,-99.99,,,-99.99,,2013-02-06 22:21:00,
2013-02-06 17:31:00,48.0,32.0,30.12,NNW,334,1.0,-999.0,53,-99.99,,,-99.99,,2013-02-06 22:31:00,
2013-02-06 17:42:00,48.0,32.0,30.12,NNW,334,1.0,-999.0,53,-99.99,,,-99.99,,2013-02-06 22:42:00,
2013-02-06 17:52:00,47.0,31.0,30.12,NNW,334,1.0,-999.0,53,-99.99,,,-99.99,,2013-02-06 22:52:00,
2013-02-06 18:01:00,47.0,32.0,30.13,NNW,334,1.0,-999.0,55,-99.99,,,-99.99,,2013-02-06 23:01:00,
2013-02-06 18:11:00,47.0,32.0,30.13,NNW,334,1.0,-999.0,55,-99.99,,,-99.99,,2013-02-06 23:11:00,
2013-02-06 18:21:00,47.0,32.0,30.12,NNW,334,1.0,-999.0,55,-99.99,,,-99.99,,2013-02-06 23:21:00,
2013-02-06 18:32:00,47.0,31.0,30.12,NNW,334,0.0,-999.0,53,-99.99,,,-99.99,,2013-02-06 23:32:00,
2013-02-06 18:42:00,47.0,31.0,30.12,NNW,334,0.0,-999.0,53,-99.99,,,-99.99,,2013-02-06 23:42:00,
2013-02-06 18:52:00,46.0,31.0,30.12,NNW,334,3.0,-999.0,56,-99.99,,,-99.99,,2013-02-06 23:52:00,
2013-02-06 19:01:00,46.0,32.0,30.11,NNW,334,3.0,-999.0,57,-99.99,,,-99.99,,2013-02-07 00:01:00,
2013-02-06 19:11:00,46.0,32.0,30.11,NNW,334,3.0,-999.0,57,-99.99,,,-99.99,,2013-02-07 00:11:00,
2013-02-06 19:21:00,46.0,30.0,30.12,NNW,334,0.0,-999.0,53,-99.99,,,-99.99,,2013-02-07 00:21:00,
2013-02-06 19:32:00,46.0,30.0,30.12,NNW,334,4.0,-999.0,54,-99.99,,,-99.99,,2013-02-07 00:32:00,
2013-02-06 19:42:00,46.0,30.0,30.12,NNW,334,4.0,-999.0,54,-99.99,,,-99.99,,2013-02-07 00:42:00,
2013-02-06 19:52:00,46.0,31.0,30.12,NNW,335,7.0,-999.0,56,-99.99,,,-99.99,,2013-02-07 00:52:00,
2013-02-06 20:01:00,46.0,31.0,30.12,ESE,103,8.0,-999.0,55,-99.99,,,-99.99,,2013-02-07 01:01:00,
2013-02-06 20:11:00,46.0,31.0,30.12,ESE,103,8.0,-999.0,55,-99.99,,,-99.99,,2013-02-07 01:11:00,
2013-02-06 20:21:00,46.0,31.0,30.11,ESE,110,9.0,-999.0,55,-99.99,,,-99.99,,2013-02-07 01:21:00,
2013-02-06 20:32:00,46.0,31.0,30.11,ESE,111,13.0,-999.0,55,-99.99,,,-99.99,,2013-02-07 01:32:00,
2013-02-06 20:42:00,46.0,31.0,30.11,ESE,111,13.0,-999.0,55,-99.99,,,-99.99,,2013-02-07 01:42:00,
2013-02-06 20:52:00,45.0,30.0,30.12,ESE,115,16.0,-999.0,55,-99.99,,,-99.99,,2013-02-07 01:52:00,
2013-02-06 21:01:00,46.0,29.0,30.12,ESE,115,14.0,-999.0,52,-99.99,,,-99.99,,2013-02-07 02:01:00,
2013-02-06 21:11:00,46.0,29.0,30.12,ESE,115,14.0,-999.0,52,-99.99,,,-99.99,,2013-02-07 02:11:00,
2013-02-06 21:21:00,46.0,29.0,30.15,ESE,119,9.0,-999.0,51,-99.99,,,-99.99,,2013-02-07 02:21:00,
2013-02-06 21:32:00,46.0,29.0,30.14,ESE,122,14.0,-999.0,51,-99.99,,,-99.99,,2013-02-07 02:32:00,
2013-02-06 21:42:00,46.0,29.0,30.14,ESE,122,14.0,-999.0,51,-99.99,,,-99.99,,2013-02-07 02:42:00,
2013-02-06 21:52:00,46.0,29.0,30.14,ESE,122,14.0,-999.0,51,-99.99,,,-99.99,,2013-02-07 02:52:00,
2013-02-06 22:02:00,46.0,29.0,30.13,SE,128,12.0,-999.0,51,-99.99,,,-99.99,,2013-02-07 03:02:00,
2013-02-06 22:11:00,46.0,29.0,30.13,SE,129,16.0,-999.0,51,-99.99,,,-99.99,,2013-02-07 03:11:00,
2013-02-06 22:21:00,46.0,29.0,30.13,SE,129,16.0,-999.0,51,-99.99,,,-99.99,,2013-02-07 03:21:00,
2013-02-06 22:31:00,46.0,29.0,30.11,SE,129,10.0,-999.0,52,-99.99,,,-99.99,,2013-02-07 03:31:00,
2013-02-06 22:42:00,46.0,29.0,30.11,SE,129,10.0,-999.0,52,-99.99,,,-99.99,,2013-02-07 03:42:00,
2013-02-06 22:52:00,46.0,29.0,30.11,SE,129,2.0,-999.0,51,-99.99,,,-99.99,,2013-02-07 03:52:00,
2013-02-06 23:01:00,47.0,29.0,30.11,SE,129,0.0,-999.0,49,-99.99,,,-99.99,,2013-02-07 04:01:00,
2013-02-06 23:11:00,47.0,29.0,30.11,SE,129,0.0,-999.0,49,-99.99,,,-99.99,,2013-02-07 04:11:00,
2013-02-06 23:22:00,46.0,28.0,30.11,SE,129,5.0,-999.0,49,-99.99,,,-99.99,,2013-02-07 04:22:00,
2013-02-06 23:32:00,47.0,28.0,30.11,SE,129,5.0,-999.0,48,-99.99,,,-99.99,,2013-02-07 04:32:00,
2013-02-06 23:42:00,47.0,28.0,30.11,SE,129,5.0,-999.0,48,-99.99,,,-99.99,,2013-02-07 04:42:00,
2013-02-06 23:53:00,46.0,29.0,30.11,SE,129,13.0,-999.0,51,-99.99,,,-99.99,,2013-02-07 04:53:00,